Terminal Aerodrome Forecast
Issued by NWS Charleston, WV

Current Version | Previous Version | Graphics & Text | Print | Product List | Glossary On
Versions: 1 2 3 4 5 6 7 8 9 10 11 12 13 14 15 16 17 18 19 20 21
000
FTUS41 KRLX 242340
TAFCRW
TAF
KCRW 242340Z 2500/2524 29006KT P6SM SCT035
     FM250300 VRB03KT P6SM SCT025
     FM250700 VRB03KT 5SM BR SCT001
     FM251000 VRB03KT 6SM BR SCT001 BKN014
     FM251400 02003KT P6SM SCT025=

USA.gov is the U.S. government's official web portal to all federal, state and local government web resources and services.